Aviation Digital Data Service (ADDS)

Output produced by METARs form (2240 UTC 30 March 2017)
found at http://www.aviationweather.gov/adds/metars/
 
TAF SGAS 302205Z 3100/0100 10003KT CAVOK TX34/3119Z TN21/3110Z 
     BECMG 3111/3115 050010KT CAVOK
       
TAF SGES 302205Z 3100/0100 VRB04KT CAVOK TX32/3119Z TN19/3110Z 
     BECMG 3111/3115 05010KT CAVOK
       
TAF SGCO 302205Z 3100/0100 11008KT CAVOK TX36/3119Z TN22/3110Z 
     BECMG 3111/3115 05012KT CAVOK